Inspiration — C6FM5 — position and weather

sailwx.info

Track history (hours):
 
Tides and Currents Weather Stations Pressure Air Temp Water Temp Dewpoint Dewpoint Depression Visibility Wind Speed Wind Dir Waves Ship Positions

Inspiration

Operator: Carnival Cruise Lines

Last reported at 2019-Jun-15 22:03 UTC. Time now 2019-Jun-16 01:31 UTC.
Position N 31°23' W 117°56'.

Type: Ship. MMSI: 309484000.

Date/timePositionNaut miles runAvg speedWind from/ knotsBaromVisibWave heightAir tempDewpointWater temp
2019-Jun-15 22:03N 31°23' W 117°56'0 7.7
2019-Jun-15 22:00N 31°23' W 117°56'14 7.4
2019-Jun-15 20:06N 31°29' W 118°11'4 7.5
2019-Jun-15 19:31N 31°31' W 118°16'0 6.9
2019-Jun-15 19:28N 31°31' W 118°16'3 7.2
2019-Jun-15 19:00N 31°34' W 118°17'6367.1
2019-Jun-15 19:00N 31°30' W 118°12'817.0 300 / 141018.310.8 16.014.417.0
2019-Jun-15 18:30N 31°38' W 118°15'4 7.6
2019-Jun-15 18:00N 31°42' W 118°13'4 7.7
2019-Jun-15 17:31N 31°45' W 118°12'4 7.8
2019-Jun-15 17:00N 31°49' W 118°10'4 7.8
2019-Jun-15 16:30N 31°52' W 118°08'4 7.5
2019-Jun-15 16:00N 31°56' W 118°07'4 7.5
2019-Jun-15 15:31N 31°59' W 118°05'4 7.2
2019-Jun-15 15:01N 32°03' W 118°03'4 6.9
2019-Jun-15 14:29N 32°06' W 118°02'3 7.1
2019-Jun-15 14:00N 32°09' W 118°00'4 7.1
2019-Jun-15 13:30N 32°12' W 117°59'4 7.1
2019-Jun-15 13:01N 32°16' W 117°57'4 7.1
2019-Jun-15 12:30N 32°19' W 117°56'3 6.9
2019-Jun-15 12:01N 32°22' W 117°54'4 7.1
2019-Jun-15 11:30N 32°25' W 117°53'4 7.6
2019-Jun-15 11:00N 32°29' W 117°51'4 7.6
2019-Jun-15 10:31N 32°32' W 117°49'4 7.5
2019-Jun-15 10:01N 32°36' W 117°48'4 7.1
2019-Jun-15 09:30N 32°40' W 117°48'4 7.3
2019-Jun-15 09:00N 32°43' W 117°49'293.9
2019-Jun-15 09:00N 32°42' W 117°48'510.4 270 / 71016.210.8 16.014.418.0
2019-Jun-15 08:31N 32°46' W 117°51'4 7.4
2019-Jun-15 08:00N 32°50' W 117°53'4 7.4
2019-Jun-15 07:31N 32°53' W 117°54'4 7.7
2019-Jun-15 07:01N 32°57' W 117°56'4 8.0
2019-Jun-15 06:30N 33°01' W 117°57'4 8.1
2019-Jun-15 06:01N 33°04' W 117°59'4 7.8
2019-Jun-15 05:31N 33°08' W 118°01'4 8.2
2019-Jun-15 05:00N 33°12' W 118°03'510.4
2019-Jun-15 04:30N 33°17' W 118°05'510.4
2019-Jun-15 04:01N 33°22' W 118°07'510.2
2019-Jun-15 03:30N 33°26' W 118°09'510.4
2019-Jun-15 03:00N 33°31' W 118°11'510.4
2019-Jun-15 02:30N 33°36' W 118°13'510.3
2019-Jun-15 02:01N 33°41' W 118°12'4 7.6
2019-Jun-15 01:30N 33°45' W 118°11'0 0.1
2019-Jun-15 00:57N 33°45' W 118°11'0 0.0
2019-Jun-15 00:30N 33°45' W 118°11'0 0.0
2019-Jun-15 00:00N 33°45' W 118°11'0 0.0
2019-Jun-14 23:30N 33°45' W 118°11'0 0.0
2019-Jun-14 23:00N 33°45' W 118°11'0 0.0
2019-Jun-14 22:30N 33°45' W 118°11'0 0.0
2019-Jun-14 22:00N 33°45' W 118°11'0 0.0
2019-Jun-14 21:27N 33°45' W 118°11'0 0.0
2019-Jun-14 21:00N 33°45' W 118°11'0 0.0
2019-Jun-14 20:30N 33°45' W 118°11'510.4
2019-Jun-14 20:00N 33°42' W 118°06'5136.3 220 / 51018.310.8 19.017.519.0
2019-Jun-14 19:57N 33°45' W 118°11'0 0.0
2019-Jun-14 19:30N 33°45' W 118°11'0 0.0
2019-Jun-14 19:00N 33°45' W 118°11'0 0.0
2019-Jun-14 18:24N 33°45' W 118°11'0 0.0
2019-Jun-14 18:00N 33°45' W 118°11'0 0.0
2019-Jun-14 17:30N 33°45' W 118°11'0 0.0
2019-Jun-14 17:00N 33°45' W 118°11'0 0.0
2019-Jun-14 16:27N 33°45' W 118°11'0 0.0
2019-Jun-14 15:54N 33°45' W 118°11'0 0.0
2019-Jun-14 15:24N 33°45' W 118°11'0 0.0
2019-Jun-14 15:00N 33°45' W 118°11'0 0.0
2019-Jun-14 14:30N 33°45' W 118°11'0 0.0
2019-Jun-14 14:00N 33°45' W 118°11'0 0.0
2019-Jun-14 13:30N 33°45' W 118°11'0 0.0
2019-Jun-14 13:00N 33°45' W 118°11'0 0.0
2019-Jun-14 12:30N 33°45' W 118°11'1 1.4
2019-Jun-14 12:00N 33°44' W 118°11'510.0
2019-Jun-14 11:30N 33°39' W 118°10'4 7.7
2019-Jun-14 11:00N 33°36' W 118°10'4 7.9
2019-Jun-14 10:30N 33°32' W 118°08'4 7.7
2019-Jun-14 10:00N 33°28' W 118°06'4 7.6
2019-Jun-14 09:29N 33°25' W 118°05'4 7.7
2019-Jun-14 08:58N 33°21' W 118°03'4 7.6
2019-Jun-14 08:30N 33°17' W 118°02'4 7.1
2019-Jun-14 08:00N 33°14' W 118°01'2420.2
2019-Jun-14 08:00N 33°12' W 118°00'2 3.5 270 / 121018.310.8 15.013.318.0
2019-Jun-14 07:31N 33°11' W 117°59'4 7.9
2019-Jun-14 07:00N 33°07' W 117°57'4 8.2
2019-Jun-14 06:30N 33°03' W 117°56'4 8.2
2019-Jun-14 06:00N 32°59' W 117°54'4 7.9
2019-Jun-14 05:30N 32°55' W 117°53'4 8.0
2019-Jun-14 05:00N 32°52' W 117°51'4 8.2
2019-Jun-14 04:31N 32°48' W 117°49'4 8.0
2019-Jun-14 04:00N 32°44' W 117°48'4 8.0
2019-Jun-14 03:30N 32°40' W 117°46'4 8.2
2019-Jun-14 03:00N 32°36' W 117°45'4 8.2
2019-Jun-14 02:31N 32°32' W 117°43'4 8.0
2019-Jun-14 02:00N 32°28' W 117°41'4 7.9
2019-Jun-14 01:30N 32°25' W 117°40'4 7.7
2019-Jun-14 01:00N 32°21' W 117°38'4 7.7
2019-Jun-14 00:30N 32°18' W 117°36'4 8.2
2019-Jun-14 00:00N 32°15' W 117°33'5 8.2
2019-Jun-13 23:22N 32°11' W 117°29'3 7.9
2019-Jun-13 23:00N 32°09' W 117°27'4 8.0
2019-Jun-13 22:30N 32°06' W 117°23'4 8.1
2019-Jun-13 22:00N 32°03' W 117°20'12 6.0
2019-Jun-13 20:01N 31°51' W 117°17'0 8.9
2019-Jun-13 20:00N 31°51' W 117°17'52325.7
2019-Jun-13 20:00N 31°48' W 117°12'917.6 270 / 181018.310.8 18.014.818.0
2019-Jun-13 19:30N 31°51' W 117°22'4 7.9
2019-Jun-13 18:57N 31°50' W 117°27'7 8.2
2019-Jun-13 18:03N 31°49' W 117°35'0 8.2
2019-Jun-13 18:00N 31°49' W 117°36'4 8.0
2019-Jun-13 17:30N 31°49' W 117°41'4 8.1
2019-Jun-13 17:00N 31°48' W 117°45'4 8.3
2019-Jun-13 16:30N 31°48' W 117°50'4 8.2
2019-Jun-13 16:00N 31°47' W 117°55'4 7.5
2019-Jun-13 15:30N 31°45' W 117°58'4 8.0
2019-Jun-13 15:00N 31°41' W 118°00'4 7.8
2019-Jun-13 14:30N 31°38' W 118°01'4 7.5
2019-Jun-13 13:59N 31°34' W 117°59'4 7.8
2019-Jun-13 13:30N 31°31' W 117°57'4 7.8
2019-Jun-13 13:00N 31°27' W 117°55'4 7.9
2019-Jun-13 12:30N 31°24' W 117°52'4 7.5
2019-Jun-13 12:00N 31°23' W 117°48'4 7.8
2019-Jun-13 11:30N 31°25' W 117°45'4 8.9
2019-Jun-13 11:00N 31°29' W 117°47'4 8.7
2019-Jun-13 10:31N 31°33' W 117°50'4 8.4
2019-Jun-13 10:00N 31°37' W 117°53'4 8.5
2019-Jun-13 09:30N 31°40' W 117°55'4 7.8
2019-Jun-13 09:00N 31°44' W 117°55'2150.9
2019-Jun-13 09:00N 31°42' W 117°54'4 8.5 310 / 221018.310.8 15.013.317.0
2019-Jun-13 08:29N 31°45' W 117°50'510.7
2019-Jun-13 08:00N 31°46' W 117°44'5 9.8
2019-Jun-13 07:31N 31°47' W 117°39'5 9.0
2019-Jun-13 07:00N 31°48' W 117°34'4 8.8
2019-Jun-13 06:30N 31°49' W 117°28'4 8.5
2019-Jun-13 05:59N 31°48' W 117°23'4 8.7
2019-Jun-13 05:30N 31°48' W 117°19'5 9.2
2019-Jun-13 05:00N 31°48' W 117°13'5 9.5
2019-Jun-13 04:30N 31°49' W 117°08'6 9.3
2019-Jun-13 03:54N 31°49' W 117°01'6 9.0
2019-Jun-13 03:15N 31°50' W 116°54'16 3.7
2019-Jun-12 23:00N 31°48' W 116°36'10 1.0 270 / 151018.310.8 19.017.518.0
2019-Jun-12 13:02N 31°52' W 116°47'4 8.5
2019-Jun-12 12:33N 31°54' W 116°51'1 7.1
2019-Jun-12 12:21N 31°55' W 116°53'3 8.4
2019-Jun-12 12:01N 31°56' W 116°56'4 8.3
2019-Jun-12 11:31N 31°58' W 117°01'4 8.4
2019-Jun-12 11:00N 31°59' W 117°05'4 8.7
2019-Jun-12 10:30N 32°01' W 117°10'4 8.5
2019-Jun-12 10:00N 32°03' W 117°15'4 7.7
2019-Jun-12 09:30N 32°04' W 117°19'4 8.2
2019-Jun-12 09:00N 32°06' W 117°23'4 8.2
2019-Jun-12 08:30N 32°07' W 117°28'4 8.2
2019-Jun-12 08:00N 32°09' W 117°32'7449.8
2019-Jun-12 08:00N 32°06' W 117°24'1122.9 270 / 81018.310.8 15.015.018.0
2019-Jun-12 07:30N 32°12' W 117°35'5 9.5
2019-Jun-12 07:01N 32°16' W 117°37'5 9.4
2019-Jun-12 06:31N 32°21' W 117°40'5 9.4
2019-Jun-12 06:01N 32°25' W 117°42'5 9.3
2019-Jun-12 05:31N 32°29' W 117°45'5 9.5
2019-Jun-12 05:00N 32°33' W 117°47'5 9.6
2019-Jun-12 04:30N 32°38' W 117°50'5 9.3
2019-Jun-12 04:01N 32°42' W 117°52'5 9.3
2019-Jun-12 03:30N 32°46' W 117°55'510.1
2019-Jun-12 03:00N 32°50' W 117°57'510.3
2019-Jun-12 02:30N 32°55' W 118°00'1110.5
2019-Jun-12 01:30N 33°04' W 118°06'510.3
2019-Jun-12 01:01N 33°09' W 118°09'510.3
2019-Jun-12 00:30N 33°14' W 118°11'5 9.9
2019-Jun-12 00:00N 33°18' W 118°14'5 9.4
2019-Jun-11 23:30N 33°21' W 118°19'0 0.4
2019-Jun-11 22:56N 33°21' W 118°19'0 0.0
2019-Jun-11 22:29N 33°21' W 118°19'0 0.0
2019-Jun-11 21:56N 33°21' W 118°19'0 0.0
2019-Jun-11 21:29N 33°21' W 118°19'0 0.0
2019-Jun-11 20:56N 33°21' W 118°19'0 0.0
2019-Jun-11 20:23N 33°21' W 118°19'0 0.0
2019-Jun-11 19:59N 33°21' W 118°19'0 0.0
2019-Jun-11 19:29N 33°21' W 118°19'3 6.4
2019-Jun-11 19:00N 33°18' W 118°18'349.6 360 / 51018.310.8 19.015.917.0
2019-Jun-11 18:56N 33°21' W 118°19'0 0.0
2019-Jun-11 18:29N 33°21' W 118°19'0 0.0
2019-Jun-11 17:56N 33°21' W 118°19'0 0.0
2019-Jun-11 17:26N 33°21' W 118°19'0 0.0
2019-Jun-11 16:59N 33°21' W 118°19'0 0.0
2019-Jun-11 16:29N 33°21' W 118°19'0 0.0
2019-Jun-11 16:00N 33°21' W 118°19'0 0.0
2019-Jun-11 15:30N 33°21' W 118°19'0 0.1
2019-Jun-11 15:00N 33°21' W 118°19'0 0.1
2019-Jun-11 14:30N 33°21' W 118°19'0 0.2
2019-Jun-11 14:00N 33°21' W 118°19'3 6.6
2019-Jun-11 13:30N 33°18' W 118°16'4 8.6
2019-Jun-11 13:00N 33°14' W 118°15'4 9.0
2019-Jun-11 12:30N 33°10' W 118°15'4 8.5
2019-Jun-11 12:00N 33°05' W 118°14'4 7.9
2019-Jun-11 11:30N 33°03' W 118°11'4 8.6
2019-Jun-11 11:00N 33°00' W 118°07'4 8.0
2019-Jun-11 10:30N 32°57' W 118°04'4 7.9
2019-Jun-11 10:00N 32°53' W 118°03'4 8.0
2019-Jun-11 09:30N 32°49' W 118°02'4 7.8
2019-Jun-11 09:00N 32°45' W 117°60'6361.3
2019-Jun-11 09:00N 32°42' W 117°54'3 5.8 260 / 41018.310.8 15.013.317.0
2019-Jun-11 08:30N 32°45' W 117°55'3 6.7
2019-Jun-11 08:00N 32°46' W 117°51'4 7.6
2019-Jun-11 07:30N 32°50' W 117°53'4 7.9
2019-Jun-11 07:00N 32°53' W 117°54'4 8.0
2019-Jun-11 06:30N 32°57' W 117°56'4 7.6
2019-Jun-11 06:00N 33°00' W 117°57'4 7.6
2019-Jun-11 05:30N 33°04' W 117°59'4 8.0
2019-Jun-11 05:00N 33°08' W 118°01'611.4
2019-Jun-11 04:30N 33°13' W 118°03'611.6
2019-Jun-11 04:00N 33°18' W 118°06'611.2
2019-Jun-11 03:30N 33°24' W 118°08'611.2
2019-Jun-11 03:00N 33°29' W 118°10'611.4
2019-Jun-11 02:30N 33°34' W 118°13'510.9
2019-Jun-11 02:00N 33°39' W 118°11'5 9.9
2019-Jun-11 01:30N 33°44' W 118°11'1 1.5
2019-Jun-11 01:00N 33°45' W 118°11'0 0.0
2019-Jun-11 00:30N 33°45' W 118°11'0 0.0
2019-Jun-11 00:00N 33°45' W 118°11'0 0.0
2019-Jun-10 23:30N 33°45' W 118°11'0 0.0
2019-Jun-10 23:00N 33°45' W 118°11'0 0.0
2019-Jun-10 22:30N 33°45' W 118°11'0 0.0
2019-Jun-10 22:00N 33°45' W 118°11'0 0.0
2019-Jun-10 21:30N 33°45' W 118°11'0 0.0
2019-Jun-10 21:00N 33°45' W 118°11'51272.3
2019-Jun-10 21:00N 33°42' W 118°06'510.7 180 / 21017.210.8 19.015.917.0
2019-Jun-10 20:30N 33°45' W 118°11'0 0.0
2019-Jun-10 20:00N 33°45' W 118°11'0 0.0
2019-Jun-10 19:30N 33°45' W 118°11'0 0.0
2019-Jun-10 19:00N 33°45' W 118°11'0 0.0
2019-Jun-10 18:30N 33°45' W 118°11'0 0.0
2019-Jun-10 18:00N 33°45' W 118°11'0 0.0
2019-Jun-10 17:27N 33°45' W 118°11'0 0.0
2019-Jun-10 17:00N 33°45' W 118°11'0 0.0
2019-Jun-10 16:30N 33°45' W 118°11'0 0.0
2019-Jun-10 16:00N 33°45' W 118°11'0 0.0
2019-Jun-10 15:27N 33°45' W 118°11'0 0.0
2019-Jun-10 14:57N 33°45' W 118°11'0 0.0
2019-Jun-10 14:27N 33°45' W 118°11'0 0.0
2019-Jun-10 14:00N 33°45' W 118°11'0 0.0
2019-Jun-10 13:30N 33°45' W 118°11'0 0.0
2019-Jun-10 13:00N 33°45' W 118°11'0 0.3
2019-Jun-10 12:30N 33°45' W 118°11'2 3.4
2019-Jun-10 12:00N 33°43' W 118°11'4 8.3
2019-Jun-10 11:30N 33°39' W 118°10'4 7.5
2019-Jun-10 11:00N 33°36' W 118°10'4 9.0
2019-Jun-10 10:30N 33°31' W 118°08'510.1
2019-Jun-10 10:00N 33°27' W 118°06'3161.0
2019-Jun-10 10:00N 33°24' W 118°06'3 6.9 300 / 51017.210.8 14.014.017.0
2019-Jun-10 09:30N 33°21' W 118°04'611.6
2019-Jun-10 09:00N 33°16' W 118°01'510.2
2019-Jun-10 08:30N 33°11' W 117°59'815.3
2019-Jun-10 08:00N 33°04' W 117°56'815.5
2019-Jun-10 07:30N 32°56' W 117°53'816.2
2019-Jun-10 07:00N 32°48' W 117°52'816.1
2019-Jun-10 06:31N 32°41' W 117°48'816.2
2019-Jun-10 06:00N 32°34' W 117°43'816.2
2019-Jun-10 05:30N 32°27' W 117°39'816.0
2019-Jun-10 05:01N 32°20' W 117°35'815.7
2019-Jun-10 04:31N 32°13' W 117°29'815.6
2019-Jun-10 04:00N 32°08' W 117°22'1215.9
2019-Jun-10 03:16N 32°01' W 117°11'16 1.0
2019-Jun-09 11:52N 31°50' W 116°58'4 8.1
2019-Jun-09 11:25N 31°49' W 117°02'3 8.1
2019-Jun-09 11:00N 31°50' W 117°06'4 7.9
2019-Jun-09 10:29N 31°49' W 117°10'4 7.8
2019-Jun-09 09:57N 31°49' W 117°15'4 7.9
2019-Jun-09 09:27N 31°48' W 117°20'4 8.1
2019-Jun-09 09:00N 31°48' W 117°24'4 8.0
2019-Jun-09 08:30N 31°48' W 117°29'610.8
2019-Jun-09 08:00N 31°42' W 117°30'341.5 090 / 81017.210.8 15.013.317.0
2019-Jun-09 07:55N 31°45' W 117°32'3 8.5
2019-Jun-09 07:30N 31°41' W 117°30'4 8.2
2019-Jun-09 07:00N 31°38' W 117°28'4 7.7
2019-Jun-09 06:30N 31°34' W 117°26'4 7.7
2019-Jun-09 05:56N 31°30' W 117°24'4 7.3
2019-Jun-09 05:27N 31°27' W 117°23'4 7.3
2019-Jun-09 04:58N 31°24' W 117°21'7 7.3
2019-Jun-09 03:59N 31°17' W 117°17'6 7.2
2019-Jun-09 03:05N 31°11' W 117°14'1 7.8
2019-Jun-09 02:59N 31°11' W 117°14'3 5.5
2019-Jun-09 02:28N 31°08' W 117°16'11 8.2
2019-Jun-09 01:05N 31°13' W 117°28'1 8.2
2019-Jun-09 00:56N 31°13' W 117°30'4 8.0
2019-Jun-09 00:23N 31°15' W 117°34'3 7.7
2019-Jun-08 23:59N 31°16' W 117°38'4 7.5
2019-Jun-08 23:30N 31°18' W 117°41'4 7.3
2019-Jun-08 22:59N 31°19' W 117°45'3 7.2
2019-Jun-08 22:30N 31°21' W 117°49'3 5.5
2019-Jun-08 22:00N 31°18' W 117°48'6685.9 280 / 51017.210.8 17.013.717.0
2019-Jun-08 21:59N 31°22' W 117°53'3 7.3
2019-Jun-08 21:30N 31°24' W 117°57'4 7.3
2019-Jun-08 21:00N 31°25' W 118°01'4 7.5
2019-Jun-08 20:25N 31°27' W 118°06'3 7.4
2019-Jun-08 20:00N 31°28' W 118°09'4 7.4
2019-Jun-08 19:30N 31°29' W 118°13'4 7.5
2019-Jun-08 19:00N 31°31' W 118°17'3 6.9
2019-Jun-08 18:30N 31°34' W 118°17'4 7.8
2019-Jun-08 18:00N 31°38' W 118°15'4 7.8
2019-Jun-08 17:31N 31°42' W 118°13'4 7.6
2019-Jun-08 17:00N 31°45' W 118°12'4 7.3
2019-Jun-08 16:31N 31°49' W 118°10'4 7.7
2019-Jun-08 16:00N 31°52' W 118°08'4 8.5
2019-Jun-08 15:30N 31°56' W 118°07'4 8.3
2019-Jun-08 15:00N 32°00' W 118°05'4 8.1
2019-Jun-08 14:30N 32°04' W 118°03'4 8.0
2019-Jun-08 14:00N 32°07' W 118°01'4 7.9
2019-Jun-08 13:30N 32°11' W 117°59'4 7.9
2019-Jun-08 13:00N 32°15' W 117°58'4 7.9
2019-Jun-08 12:30N 32°18' W 117°56'4 7.8
2019-Jun-08 12:00N 32°22' W 117°54'4 7.8
2019-Jun-08 11:31N 32°26' W 117°53'4 7.9
2019-Jun-08 11:00N 32°29' W 117°51'4 8.0
2019-Jun-08 10:30N 32°33' W 117°49'4 8.2
2019-Jun-08 10:00N 32°37' W 117°47'7419.1
2019-Jun-08 10:00N 32°30' W 117°48'1121.8 160 / 101018.310.8 15.013.317.0
2019-Jun-08 09:30N 32°41' W 117°48'4 7.5
2019-Jun-08 09:00N 32°44' W 117°50'4 7.8
2019-Jun-08 08:30N 32°48' W 117°52'4 7.9
2019-Jun-08 08:00N 32°51' W 117°53'4 7.5
2019-Jun-08 07:30N 32°55' W 117°55'4 7.6
2019-Jun-08 07:00N 32°58' W 117°56'4 7.6
2019-Jun-08 06:30N 33°02' W 117°58'4 7.6
2019-Jun-08 06:00N 33°06' W 117°60'4 7.5
2019-Jun-08 05:31N 33°09' W 118°01'4 8.7
2019-Jun-08 05:00N 33°13' W 118°03'5 9.1
2019-Jun-08 04:31N 33°17' W 118°05'4 8.8
2019-Jun-08 04:00N 33°21' W 118°07'4 9.0
2019-Jun-08 03:30N 33°26' W 118°09'510.1
2019-Jun-08 03:00N 33°30' W 118°11'510.8
2019-Jun-08 02:30N 33°35' W 118°13'510.3
2019-Jun-08 02:00N 33°40' W 118°12'5 9.1
2019-Jun-08 01:30N 33°45' W 118°11'0 0.3
2019-Jun-08 00:59N 33°45' W 118°11'0 0.0
2019-Jun-08 00:29N 33°45' W 118°11'0 0.0
2019-Jun-07 23:59N 33°45' W 118°11'0 0.0
2019-Jun-07 23:29N 33°45' W 118°11'0 0.0
2019-Jun-07 22:59N 33°45' W 118°11'0 0.0
2019-Jun-07 22:26N 33°45' W 118°11'0 0.0
2019-Jun-07 21:59N 33°45' W 118°11'0 0.0
2019-Jun-07 21:29N 33°45' W 118°11'0 0.0
2019-Jun-07 20:59N 33°45' W 118°11'0 0.0
2019-Jun-07 20:29N 33°45' W 118°11'0 0.0
2019-Jun-07 19:59N 33°45' W 118°11'0 0.0
2019-Jun-07 19:29N 33°45' W 118°11'0 0.0
2019-Jun-07 18:59N 33°45' W 118°11'0 0.0
2019-Jun-07 18:29N 33°45' W 118°11'0 0.0
2019-Jun-07 17:53N 33°45' W 118°11'0 0.0
2019-Jun-07 17:29N 33°45' W 118°11'0 0.0
2019-Jun-07 16:59N 33°45' W 118°11'0 0.0
2019-Jun-07 16:29N 33°45' W 118°11'0 0.0
2019-Jun-07 15:59N 33°45' W 118°11'0 0.0
2019-Jun-07 15:29N 33°45' W 118°11'0 0.0
2019-Jun-07 14:59N 33°45' W 118°11'0 0.0
2019-Jun-07 14:29N 33°45' W 118°11'0 0.0
2019-Jun-07 13:59N 33°45' W 118°11'0 0.0
2019-Jun-07 13:29N 33°45' W 118°11'0 0.0
2019-Jun-07 12:59N 33°45' W 118°11'0 0.2
2019-Jun-07 12:31N 33°45' W 118°11'1 2.7
2019-Jun-07 12:00N 33°44' W 118°11'5 9.4
2019-Jun-07 11:30N 33°39' W 118°10'4 7.2
2019-Jun-07 11:01N 33°35' W 118°10'4 8.0
2019-Jun-07 10:28N 33°31' W 118°08'4 8.0
2019-Jun-07 10:01N 33°28' W 118°06'4 7.5
2019-Jun-07 09:28N 33°24' W 118°05'3 7.3
2019-Jun-07 09:00N 33°21' W 118°03'4 7.5
2019-Jun-07 08:30N 33°17' W 118°02'4 8.2
2019-Jun-07 08:00N 33°14' W 118°00'2107.7
2019-Jun-07 08:00N 33°12' W 118°00'2 4.7 130 / 71018.310.8 15.013.317.0
2019-Jun-07 07:30N 33°10' W 117°59'4 8.4
2019-Jun-07 07:00N 33°06' W 117°57'4 8.2
2019-Jun-07 06:30N 33°02' W 117°56'4 8.1
2019-Jun-07 06:00N 32°58' W 117°55'4 8.2
2019-Jun-07 05:30N 32°54' W 117°52'4 8.1
2019-Jun-07 05:00N 32°51' W 117°51'4 7.9
2019-Jun-07 04:30N 32°47' W 117°49'4 8.0
2019-Jun-07 04:00N 32°43' W 117°48'4 8.0
2019-Jun-07 03:30N 32°39' W 117°46'4 8.4
2019-Jun-07 03:00N 32°35' W 117°44'4 8.6
2019-Jun-07 02:30N 32°31' W 117°43'4 8.6
2019-Jun-07 02:00N 32°27' W 117°41'4 8.8
2019-Jun-07 01:30N 32°23' W 117°39'4 8.6
2019-Jun-07 01:01N 32°19' W 117°38'4 8.4
2019-Jun-07 00:30N 32°16' W 117°34'4 8.5
2019-Jun-07 00:00N 32°13' W 117°31'4 8.5
2019-Jun-06 23:30N 32°10' W 117°28'11 8.4
2019-Jun-06 22:13N 32°01' W 117°19'11 6.8
2019-Jun-06 20:38N 31°51' W 117°20'3 5.4
2019-Jun-06 20:00N 31°48' W 117°18'1225.4 190 / 41018.310.8 17.015.417.0
2019-Jun-06 19:32N 31°49' W 117°32'1 7.7
2019-Jun-06 19:26N 31°49' W 117°33'3 8.0
2019-Jun-06 19:00N 31°49' W 117°37'4 8.2
2019-Jun-06 18:30N 31°49' W 117°41'4 8.1
2019-Jun-06 18:00N 31°48' W 117°46'4 8.2
2019-Jun-06 17:30N 31°48' W 117°51'4 8.2
2019-Jun-06 16:57N 31°47' W 117°56'4 8.4
2019-Jun-06 16:30N 31°47' W 118°01'4 8.3
2019-Jun-06 15:59N 31°46' W 118°06'3 6.2
2019-Jun-06 15:30N 31°44' W 118°08'4 7.6
2019-Jun-06 15:00N 31°41' W 118°05'4 7.8
2019-Jun-06 14:30N 31°38' W 118°03'8 7.7
2019-Jun-06 13:31N 31°31' W 117°58'0 7.1
2019-Jun-06 13:30N 31°31' W 117°57'12 5.5
2019-Jun-06 11:19N 31°26' W 117°45'5 8.4
2019-Jun-06 10:40N 31°31' W 117°48'1 8.7
2019-Jun-06 10:30N 31°32' W 117°49'4 9.0
2019-Jun-06 10:00N 31°36' W 117°52'6 8.6
2019-Jun-06 09:21N 31°40' W 117°56'3 7.6
2019-Jun-06 09:00N 31°43' W 117°56'7457.7
2019-Jun-06 09:00N 31°42' W 117°48'4 9.0 270 / 61016.210.8 15.013.317.0
2019-Jun-06 08:30N 31°45' W 117°52'6 8.1
2019-Jun-06 07:47N 31°45' W 117°45'  
Track history (hours):
 
Tides and Currents Weather Stations Pressure Air Temp Water Temp Dewpoint Dewpoint Depression Visibility Wind Speed Wind Dir Waves Ship Positions

Inspiration

Operator: Carnival Cruise Lines

Last reported at 2019-Jun-15 22:03 UTC. Time now 2019-Jun-16 01:31 UTC.
Position N 31°23' W 117°56'.

Type: Ship. MMSI: 309484000.

Date/timePositionNaut miles runAvg speedWind from/ knotsBaromVisibWave heightAir tempDewpointWater temp
2019-Jun-15 22:03N 31°23' W 117°56'0 7.7
2019-Jun-15 22:00N 31°23' W 117°56'14 7.4
2019-Jun-15 20:06N 31°29' W 118°11'4 7.5
2019-Jun-15 19:31N 31°31' W 118°16'0 6.9
2019-Jun-15 19:28N 31°31' W 118°16'3 7.2
2019-Jun-15 19:00N 31°34' W 118°17'6367.1
2019-Jun-15 19:00N 31°30' W 118°12'817.0 300 / 141018.310.8 16.014.417.0
2019-Jun-15 18:30N 31°38' W 118°15'4 7.6
2019-Jun-15 18:00N 31°42' W 118°13'4 7.7
2019-Jun-15 17:31N 31°45' W 118°12'4 7.8
2019-Jun-15 17:00N 31°49' W 118°10'4 7.8
2019-Jun-15 16:30N 31°52' W 118°08'4 7.5
2019-Jun-15 16:00N 31°56' W 118°07'4 7.5
2019-Jun-15 15:31N 31°59' W 118°05'4 7.2
2019-Jun-15 15:01N 32°03' W 118°03'4 6.9
2019-Jun-15 14:29N 32°06' W 118°02'3 7.1
2019-Jun-15 14:00N 32°09' W 118°00'4 7.1
2019-Jun-15 13:30N 32°12' W 117°59'4 7.1
2019-Jun-15 13:01N 32°16' W 117°57'4 7.1
2019-Jun-15 12:30N 32°19' W 117°56'3 6.9
2019-Jun-15 12:01N 32°22' W 117°54'4 7.1
2019-Jun-15 11:30N 32°25' W 117°53'4 7.6
2019-Jun-15 11:00N 32°29' W 117°51'4 7.6
2019-Jun-15 10:31N 32°32' W 117°49'4 7.5
2019-Jun-15 10:01N 32°36' W 117°48'4 7.1
2019-Jun-15 09:30N 32°40' W 117°48'4 7.3
2019-Jun-15 09:00N 32°43' W 117°49'293.9
2019-Jun-15 09:00N 32°42' W 117°48'510.4 270 / 71016.210.8 16.014.418.0
2019-Jun-15 08:31N 32°46' W 117°51'4 7.4
2019-Jun-15 08:00N 32°50' W 117°53'4 7.4
2019-Jun-15 07:31N 32°53' W 117°54'4 7.7
2019-Jun-15 07:01N 32°57' W 117°56'4 8.0
2019-Jun-15 06:30N 33°01' W 117°57'4 8.1
2019-Jun-15 06:01N 33°04' W 117°59'4 7.8
2019-Jun-15 05:31N 33°08' W 118°01'4 8.2
2019-Jun-15 05:00N 33°12' W 118°03'510.4
2019-Jun-15 04:30N 33°17' W 118°05'510.4
2019-Jun-15 04:01N 33°22' W 118°07'510.2
2019-Jun-15 03:30N 33°26' W 118°09'510.4
2019-Jun-15 03:00N 33°31' W 118°11'510.4
2019-Jun-15 02:30N 33°36' W 118°13'510.3
2019-Jun-15 02:01N 33°41' W 118°12'4 7.6
2019-Jun-15 01:30N 33°45' W 118°11'0 0.1
2019-Jun-15 00:57N 33°45' W 118°11'0 0.0
2019-Jun-15 00:30N 33°45' W 118°11'0 0.0
2019-Jun-15 00:00N 33°45' W 118°11'0 0.0
2019-Jun-14 23:30N 33°45' W 118°11'0 0.0
2019-Jun-14 23:00N 33°45' W 118°11'0 0.0
2019-Jun-14 22:30N 33°45' W 118°11'0 0.0
2019-Jun-14 22:00N 33°45' W 118°11'0 0.0
2019-Jun-14 21:27N 33°45' W 118°11'0 0.0
2019-Jun-14 21:00N 33°45' W 118°11'0 0.0
2019-Jun-14 20:30N 33°45' W 118°11'510.4
2019-Jun-14 20:00N 33°42' W 118°06'5136.3 220 / 51018.310.8 19.017.519.0
2019-Jun-14 19:57N 33°45' W 118°11'0 0.0
2019-Jun-14 19:30N 33°45' W 118°11'0 0.0
2019-Jun-14 19:00N 33°45' W 118°11'0 0.0
2019-Jun-14 18:24N 33°45' W 118°11'0 0.0
2019-Jun-14 18:00N 33°45' W 118°11'0 0.0
2019-Jun-14 17:30N 33°45' W 118°11'0 0.0
2019-Jun-14 17:00N 33°45' W 118°11'0 0.0
2019-Jun-14 16:27N 33°45' W 118°11'0 0.0
2019-Jun-14 15:54N 33°45' W 118°11'0 0.0
2019-Jun-14 15:24N 33°45' W 118°11'0 0.0
2019-Jun-14 15:00N 33°45' W 118°11'0 0.0
2019-Jun-14 14:30N 33°45' W 118°11'0 0.0
2019-Jun-14 14:00N 33°45' W 118°11'0 0.0
2019-Jun-14 13:30N 33°45' W 118°11'0 0.0
2019-Jun-14 13:00N 33°45' W 118°11'0 0.0
2019-Jun-14 12:30N 33°45' W 118°11'1 1.4
2019-Jun-14 12:00N 33°44' W 118°11'510.0
2019-Jun-14 11:30N 33°39' W 118°10'4 7.7
2019-Jun-14 11:00N 33°36' W 118°10'4 7.9
2019-Jun-14 10:30N 33°32' W 118°08'4 7.7
2019-Jun-14 10:00N 33°28' W 118°06'4 7.6
2019-Jun-14 09:29N 33°25' W 118°05'4 7.7
2019-Jun-14 08:58N 33°21' W 118°03'4 7.6
2019-Jun-14 08:30N 33°17' W 118°02'4 7.1
2019-Jun-14 08:00N 33°14' W 118°01'2420.2
2019-Jun-14 08:00N 33°12' W 118°00'2 3.5 270 / 121018.310.8 15.013.318.0
2019-Jun-14 07:31N 33°11' W 117°59'4 7.9
2019-Jun-14 07:00N 33°07' W 117°57'4 8.2
2019-Jun-14 06:30N 33°03' W 117°56'4 8.2
2019-Jun-14 06:00N 32°59' W 117°54'4 7.9
2019-Jun-14 05:30N 32°55' W 117°53'4 8.0
2019-Jun-14 05:00N 32°52' W 117°51'4 8.2
2019-Jun-14 04:31N 32°48' W 117°49'4 8.0
2019-Jun-14 04:00N 32°44' W 117°48'4 8.0
2019-Jun-14 03:30N 32°40' W 117°46'4 8.2
2019-Jun-14 03:00N 32°36' W 117°45'4 8.2
2019-Jun-14 02:31N 32°32' W 117°43'4 8.0
2019-Jun-14 02:00N 32°28' W 117°41'4 7.9
2019-Jun-14 01:30N 32°25' W 117°40'4 7.7
2019-Jun-14 01:00N 32°21' W 117°38'4 7.7
2019-Jun-14 00:30N 32°18' W 117°36'4 8.2
2019-Jun-14 00:00N 32°15' W 117°33'5 8.2
2019-Jun-13 23:22N 32°11' W 117°29'3 7.9
2019-Jun-13 23:00N 32°09' W 117°27'4 8.0
2019-Jun-13 22:30N 32°06' W 117°23'4 8.1
2019-Jun-13 22:00N 32°03' W 117°20'12 6.0
2019-Jun-13 20:01N 31°51' W 117°17'0 8.9
2019-Jun-13 20:00N 31°51' W 117°17'52325.7
2019-Jun-13 20:00N 31°48' W 117°12'917.6 270 / 181018.310.8 18.014.818.0
2019-Jun-13 19:30N 31°51' W 117°22'4 7.9
2019-Jun-13 18:57N 31°50' W 117°27'7 8.2
2019-Jun-13 18:03N 31°49' W 117°35'0 8.2
2019-Jun-13 18:00N 31°49' W 117°36'4 8.0
2019-Jun-13 17:30N 31°49' W 117°41'4 8.1
2019-Jun-13 17:00N 31°48' W 117°45'4 8.3
2019-Jun-13 16:30N 31°48' W 117°50'4 8.2
2019-Jun-13 16:00N 31°47' W 117°55'4 7.5
2019-Jun-13 15:30N 31°45' W 117°58'4 8.0
2019-Jun-13 15:00N 31°41' W 118°00'4 7.8
2019-Jun-13 14:30N 31°38' W 118°01'4 7.5
2019-Jun-13 13:59N 31°34' W 117°59'4 7.8
2019-Jun-13 13:30N 31°31' W 117°57'4 7.8
2019-Jun-13 13:00N 31°27' W 117°55'4 7.9
2019-Jun-13 12:30N 31°24' W 117°52'4 7.5
2019-Jun-13 12:00N 31°23' W 117°48'4 7.8
2019-Jun-13 11:30N 31°25' W 117°45'4 8.9
2019-Jun-13 11:00N 31°29' W 117°47'4 8.7
2019-Jun-13 10:31N 31°33' W 117°50'4 8.4
2019-Jun-13 10:00N 31°37' W 117°53'4 8.5
2019-Jun-13 09:30N 31°40' W 117°55'4 7.8
2019-Jun-13 09:00N 31°44' W 117°55'2150.9
2019-Jun-13 09:00N 31°42' W 117°54'4 8.5 310 / 221018.310.8 15.013.317.0
2019-Jun-13 08:29N 31°45' W 117°50'510.7
2019-Jun-13 08:00N 31°46' W 117°44'5 9.8
2019-Jun-13 07:31N 31°47' W 117°39'5 9.0
2019-Jun-13 07:00N 31°48' W 117°34'4 8.8
2019-Jun-13 06:30N 31°49' W 117°28'4 8.5
2019-Jun-13 05:59N 31°48' W 117°23'4 8.7
2019-Jun-13 05:30N 31°48' W 117°19'5 9.2
2019-Jun-13 05:00N 31°48' W 117°13'5 9.5
2019-Jun-13 04:30N 31°49' W 117°08'6 9.3
2019-Jun-13 03:54N 31°49' W 117°01'6 9.0
2019-Jun-13 03:15N 31°50' W 116°54'16 3.7
2019-Jun-12 23:00N 31°48' W 116°36'10 1.0 270 / 151018.310.8 19.017.518.0
2019-Jun-12 13:02N 31°52' W 116°47'4 8.5
2019-Jun-12 12:33N 31°54' W 116°51'1 7.1
2019-Jun-12 12:21N 31°55' W 116°53'3 8.4
2019-Jun-12 12:01N 31°56' W 116°56'4 8.3
2019-Jun-12 11:31N 31°58' W 117°01'4 8.4
2019-Jun-12 11:00N 31°59' W 117°05'4 8.7
2019-Jun-12 10:30N 32°01' W 117°10'4 8.5
2019-Jun-12 10:00N 32°03' W 117°15'4 7.7
2019-Jun-12 09:30N 32°04' W 117°19'4 8.2
2019-Jun-12 09:00N 32°06' W 117°23'4 8.2
2019-Jun-12 08:30N 32°07' W 117°28'4 8.2
2019-Jun-12 08:00N 32°09' W 117°32'7449.8
2019-Jun-12 08:00N 32°06' W 117°24'1122.9 270 / 81018.310.8 15.015.018.0
2019-Jun-12 07:30N 32°12' W 117°35'5 9.5
2019-Jun-12 07:01N 32°16' W 117°37'5 9.4
2019-Jun-12 06:31N 32°21' W 117°40'5 9.4
2019-Jun-12 06:01N 32°25' W 117°42'5 9.3
2019-Jun-12 05:31N 32°29' W 117°45'5 9.5
2019-Jun-12 05:00N 32°33' W 117°47'5 9.6
2019-Jun-12 04:30N 32°38' W 117°50'5 9.3
2019-Jun-12 04:01N 32°42' W 117°52'5 9.3
2019-Jun-12 03:30N 32°46' W 117°55'510.1
2019-Jun-12 03:00N 32°50' W 117°57'510.3
2019-Jun-12 02:30N 32°55' W 118°00'1110.5
2019-Jun-12 01:30N 33°04' W 118°06'510.3
2019-Jun-12 01:01N 33°09' W 118°09'510.3
2019-Jun-12 00:30N 33°14' W 118°11'5 9.9
2019-Jun-12 00:00N 33°18' W 118°14'5 9.4
2019-Jun-11 23:30N 33°21' W 118°19'0 0.4
2019-Jun-11 22:56N 33°21' W 118°19'0 0.0
2019-Jun-11 22:29N 33°21' W 118°19'0 0.0
2019-Jun-11 21:56N 33°21' W 118°19'0 0.0
2019-Jun-11 21:29N 33°21' W 118°19'0 0.0
2019-Jun-11 20:56N 33°21' W 118°19'0 0.0
2019-Jun-11 20:23N 33°21' W 118°19'0 0.0
2019-Jun-11 19:59N 33°21' W 118°19'0 0.0
2019-Jun-11 19:29N 33°21' W 118°19'3 6.4
2019-Jun-11 19:00N 33°18' W 118°18'349.6 360 / 51018.310.8 19.015.917.0
2019-Jun-11 18:56N 33°21' W 118°19'0 0.0
2019-Jun-11 18:29N 33°21' W 118°19'0 0.0
2019-Jun-11 17:56N 33°21' W 118°19'0 0.0
2019-Jun-11 17:26N 33°21' W 118°19'0 0.0
2019-Jun-11 16:59N 33°21' W 118°19'0 0.0
2019-Jun-11 16:29N 33°21' W 118°19'0 0.0
2019-Jun-11 16:00N 33°21' W 118°19'0 0.0
2019-Jun-11 15:30N 33°21' W 118°19'0 0.1
2019-Jun-11 15:00N 33°21' W 118°19'0 0.1
2019-Jun-11 14:30N 33°21' W 118°19'0 0.2
2019-Jun-11 14:00N 33°21' W 118°19'3 6.6
2019-Jun-11 13:30N 33°18' W 118°16'4 8.6
2019-Jun-11 13:00N 33°14' W 118°15'4 9.0
2019-Jun-11 12:30N 33°10' W 118°15'4 8.5
2019-Jun-11 12:00N 33°05' W 118°14'4 7.9
2019-Jun-11 11:30N 33°03' W 118°11'4 8.6
2019-Jun-11 11:00N 33°00' W 118°07'4 8.0
2019-Jun-11 10:30N 32°57' W 118°04'4 7.9
2019-Jun-11 10:00N 32°53' W 118°03'4 8.0
2019-Jun-11 09:30N 32°49' W 118°02'4 7.8
2019-Jun-11 09:00N 32°45' W 117°60'6361.3
2019-Jun-11 09:00N 32°42' W 117°54'3 5.8 260 / 41018.310.8 15.013.317.0
2019-Jun-11 08:30N 32°45' W 117°55'3 6.7
2019-Jun-11 08:00N 32°46' W 117°51'4 7.6
2019-Jun-11 07:30N 32°50' W 117°53'4 7.9
2019-Jun-11 07:00N 32°53' W 117°54'4 8.0
2019-Jun-11 06:30N 32°57' W 117°56'4 7.6
2019-Jun-11 06:00N 33°00' W 117°57'4 7.6
2019-Jun-11 05:30N 33°04' W 117°59'4 8.0
2019-Jun-11 05:00N 33°08' W 118°01'611.4
2019-Jun-11 04:30N 33°13' W 118°03'611.6
2019-Jun-11 04:00N 33°18' W 118°06'611.2
2019-Jun-11 03:30N 33°24' W 118°08'611.2
2019-Jun-11 03:00N 33°29' W 118°10'611.4
2019-Jun-11 02:30N 33°34' W 118°13'510.9
2019-Jun-11 02:00N 33°39' W 118°11'5 9.9
2019-Jun-11 01:30N 33°44' W 118°11'1 1.5
2019-Jun-11 01:00N 33°45' W 118°11'0 0.0
2019-Jun-11 00:30N 33°45' W 118°11'0 0.0
2019-Jun-11 00:00N 33°45' W 118°11'0 0.0
2019-Jun-10 23:30N 33°45' W 118°11'0 0.0
2019-Jun-10 23:00N 33°45' W 118°11'0 0.0
2019-Jun-10 22:30N 33°45' W 118°11'0 0.0
2019-Jun-10 22:00N 33°45' W 118°11'0 0.0
2019-Jun-10 21:30N 33°45' W 118°11'0 0.0
2019-Jun-10 21:00N 33°45' W 118°11'51272.3
2019-Jun-10 21:00N 33°42' W 118°06'510.7 180 / 21017.210.8 19.015.917.0
2019-Jun-10 20:30N 33°45' W 118°11'0 0.0
2019-Jun-10 20:00N 33°45' W 118°11'0 0.0
2019-Jun-10 19:30N 33°45' W 118°11'0 0.0
2019-Jun-10 19:00N 33°45' W 118°11'0 0.0
2019-Jun-10 18:30N 33°45' W 118°11'0 0.0
2019-Jun-10 18:00N 33°45' W 118°11'0 0.0
2019-Jun-10 17:27N 33°45' W 118°11'0 0.0
2019-Jun-10 17:00N 33°45' W 118°11'0 0.0
2019-Jun-10 16:30N 33°45' W 118°11'0 0.0
2019-Jun-10 16:00N 33°45' W 118°11'0 0.0
2019-Jun-10 15:27N 33°45' W 118°11'0 0.0
2019-Jun-10 14:57N 33°45' W 118°11'0 0.0
2019-Jun-10 14:27N 33°45' W 118°11'0 0.0
2019-Jun-10 14:00N 33°45' W 118°11'0 0.0
2019-Jun-10 13:30N 33°45' W 118°11'0 0.0
2019-Jun-10 13:00N 33°45' W 118°11'0 0.3
2019-Jun-10 12:30N 33°45' W 118°11'2 3.4
2019-Jun-10 12:00N 33°43' W 118°11'4 8.3
2019-Jun-10 11:30N 33°39' W 118°10'4 7.5
2019-Jun-10 11:00N 33°36' W 118°10'4 9.0
2019-Jun-10 10:30N 33°31' W 118°08'510.1
2019-Jun-10 10:00N 33°27' W 118°06'3161.0
2019-Jun-10 10:00N 33°24' W 118°06'3 6.9 300 / 51017.210.8 14.014.017.0
2019-Jun-10 09:30N 33°21' W 118°04'611.6
2019-Jun-10 09:00N 33°16' W 118°01'510.2
2019-Jun-10 08:30N 33°11' W 117°59'815.3
2019-Jun-10 08:00N 33°04' W 117°56'815.5
2019-Jun-10 07:30N 32°56' W 117°53'816.2
2019-Jun-10 07:00N 32°48' W 117°52'816.1
2019-Jun-10 06:31N 32°41' W 117°48'816.2
2019-Jun-10 06:00N 32°34' W 117°43'816.2
2019-Jun-10 05:30N 32°27' W 117°39'816.0
2019-Jun-10 05:01N 32°20' W 117°35'815.7
2019-Jun-10 04:31N 32°13' W 117°29'815.6
2019-Jun-10 04:00N 32°08' W 117°22'1215.9
2019-Jun-10 03:16N 32°01' W 117°11'16 1.0
2019-Jun-09 11:52N 31°50' W 116°58'4 8.1
2019-Jun-09 11:25N 31°49' W 117°02'3 8.1
2019-Jun-09 11:00N 31°50' W 117°06'4 7.9
2019-Jun-09 10:29N 31°49' W 117°10'4 7.8
2019-Jun-09 09:57N 31°49' W 117°15'4 7.9
2019-Jun-09 09:27N 31°48' W 117°20'4 8.1
2019-Jun-09 09:00N 31°48' W 117°24'4 8.0
2019-Jun-09 08:30N 31°48' W 117°29'610.8
2019-Jun-09 08:00N 31°42' W 117°30'341.5 090 / 81017.210.8 15.013.317.0
2019-Jun-09 07:55N 31°45' W 117°32'3 8.5
2019-Jun-09 07:30N 31°41' W 117°30'4 8.2
2019-Jun-09 07:00N 31°38' W 117°28'4 7.7
2019-Jun-09 06:30N 31°34' W 117°26'4 7.7
2019-Jun-09 05:56N 31°30' W 117°24'4 7.3
2019-Jun-09 05:27N 31°27' W 117°23'4 7.3
2019-Jun-09 04:58N 31°24' W 117°21'7 7.3
2019-Jun-09 03:59N 31°17' W 117°17'6 7.2
2019-Jun-09 03:05N 31°11' W 117°14'1 7.8
2019-Jun-09 02:59N 31°11' W 117°14'3 5.5
2019-Jun-09 02:28N 31°08' W 117°16'11 8.2
2019-Jun-09 01:05N 31°13' W 117°28'1 8.2
2019-Jun-09 00:56N 31°13' W 117°30'4 8.0
2019-Jun-09 00:23N 31°15' W 117°34'3 7.7
2019-Jun-08 23:59N 31°16' W 117°38'4 7.5
2019-Jun-08 23:30N 31°18' W 117°41'4 7.3
2019-Jun-08 22:59N 31°19' W 117°45'3 7.2
2019-Jun-08 22:30N 31°21' W 117°49'3 5.5
2019-Jun-08 22:00N 31°18' W 117°48'6685.9 280 / 51017.210.8 17.013.717.0
2019-Jun-08 21:59N 31°22' W 117°53'3 7.3
2019-Jun-08 21:30N 31°24' W 117°57'4 7.3
2019-Jun-08 21:00N 31°25' W 118°01'4 7.5
2019-Jun-08 20:25N 31°27' W 118°06'3 7.4
2019-Jun-08 20:00N 31°28' W 118°09'4 7.4
2019-Jun-08 19:30N 31°29' W 118°13'4 7.5
2019-Jun-08 19:00N 31°31' W 118°17'3 6.9
2019-Jun-08 18:30N 31°34' W 118°17'4 7.8
2019-Jun-08 18:00N 31°38' W 118°15'4 7.8
2019-Jun-08 17:31N 31°42' W 118°13'4 7.6
2019-Jun-08 17:00N 31°45' W 118°12'4 7.3
2019-Jun-08 16:31N 31°49' W 118°10'4 7.7
2019-Jun-08 16:00N 31°52' W 118°08'4 8.5
2019-Jun-08 15:30N 31°56' W 118°07'4 8.3
2019-Jun-08 15:00N 32°00' W 118°05'4 8.1
2019-Jun-08 14:30N 32°04' W 118°03'4 8.0
2019-Jun-08 14:00N 32°07' W 118°01'4 7.9
2019-Jun-08 13:30N 32°11' W 117°59'4 7.9
2019-Jun-08 13:00N 32°15' W 117°58'4 7.9
2019-Jun-08 12:30N 32°18' W 117°56'4 7.8
2019-Jun-08 12:00N 32°22' W 117°54'4 7.8
2019-Jun-08 11:31N 32°26' W 117°53'4 7.9
2019-Jun-08 11:00N 32°29' W 117°51'4 8.0
2019-Jun-08 10:30N 32°33' W 117°49'4 8.2
2019-Jun-08 10:00N 32°37' W 117°47'7419.1
2019-Jun-08 10:00N 32°30' W 117°48'1121.8 160 / 101018.310.8 15.013.317.0
2019-Jun-08 09:30N 32°41' W 117°48'4 7.5
2019-Jun-08 09:00N 32°44' W 117°50'4 7.8
2019-Jun-08 08:30N 32°48' W 117°52'4 7.9
2019-Jun-08 08:00N 32°51' W 117°53'4 7.5
2019-Jun-08 07:30N 32°55' W 117°55'4 7.6
2019-Jun-08 07:00N 32°58' W 117°56'4 7.6
2019-Jun-08 06:30N 33°02' W 117°58'4 7.6
2019-Jun-08 06:00N 33°06' W 117°60'4 7.5
2019-Jun-08 05:31N 33°09' W 118°01'4 8.7
2019-Jun-08 05:00N 33°13' W 118°03'5 9.1
2019-Jun-08 04:31N 33°17' W 118°05'4 8.8
2019-Jun-08 04:00N 33°21' W 118°07'4 9.0
2019-Jun-08 03:30N 33°26' W 118°09'510.1
2019-Jun-08 03:00N 33°30' W 118°11'510.8
2019-Jun-08 02:30N 33°35' W 118°13'510.3
2019-Jun-08 02:00N 33°40' W 118°12'5 9.1
2019-Jun-08 01:30N 33°45' W 118°11'0 0.3
2019-Jun-08 00:59N 33°45' W 118°11'0 0.0
2019-Jun-08 00:29N 33°45' W 118°11'0 0.0
2019-Jun-07 23:59N 33°45' W 118°11'0 0.0
2019-Jun-07 23:29N 33°45' W 118°11'0 0.0
2019-Jun-07 22:59N 33°45' W 118°11'0 0.0
2019-Jun-07 22:26N 33°45' W 118°11'0 0.0
2019-Jun-07 21:59N 33°45' W 118°11'0 0.0
2019-Jun-07 21:29N 33°45' W 118°11'0 0.0
2019-Jun-07 20:59N 33°45' W 118°11'0 0.0
2019-Jun-07 20:29N 33°45' W 118°11'0 0.0
2019-Jun-07 19:59N 33°45' W 118°11'0 0.0
2019-Jun-07 19:29N 33°45' W 118°11'0 0.0
2019-Jun-07 18:59N 33°45' W 118°11'0 0.0
2019-Jun-07 18:29N 33°45' W 118°11'0 0.0
2019-Jun-07 17:53N 33°45' W 118°11'0 0.0
2019-Jun-07 17:29N 33°45' W 118°11'0 0.0
2019-Jun-07 16:59N 33°45' W 118°11'0 0.0
2019-Jun-07 16:29N 33°45' W 118°11'0 0.0
2019-Jun-07 15:59N 33°45' W 118°11'0 0.0
2019-Jun-07 15:29N 33°45' W 118°11'0 0.0
2019-Jun-07 14:59N 33°45' W 118°11'0 0.0
2019-Jun-07 14:29N 33°45' W 118°11'0 0.0
2019-Jun-07 13:59N 33°45' W 118°11'0 0.0
2019-Jun-07 13:29N 33°45' W 118°11'0 0.0
2019-Jun-07 12:59N 33°45' W 118°11'0 0.2
2019-Jun-07 12:31N 33°45' W 118°11'1 2.7
2019-Jun-07 12:00N 33°44' W 118°11'5 9.4
2019-Jun-07 11:30N 33°39' W 118°10'4 7.2
2019-Jun-07 11:01N 33°35' W 118°10'4 8.0
2019-Jun-07 10:28N 33°31' W 118°08'4 8.0
2019-Jun-07 10:01N 33°28' W 118°06'4 7.5
2019-Jun-07 09:28N 33°24' W 118°05'3 7.3
2019-Jun-07 09:00N 33°21' W 118°03'4 7.5
2019-Jun-07 08:30N 33°17' W 118°02'4 8.2
2019-Jun-07 08:00N 33°14' W 118°00'2107.7
2019-Jun-07 08:00N 33°12' W 118°00'2 4.7 130 / 71018.310.8 15.013.317.0
2019-Jun-07 07:30N 33°10' W 117°59'4 8.4
2019-Jun-07 07:00N 33°06' W 117°57'4 8.2
2019-Jun-07 06:30N 33°02' W 117°56'4 8.1
2019-Jun-07 06:00N 32°58' W 117°55'4 8.2
2019-Jun-07 05:30N 32°54' W 117°52'4 8.1
2019-Jun-07 05:00N 32°51' W 117°51'4 7.9
2019-Jun-07 04:30N 32°47' W 117°49'4 8.0
2019-Jun-07 04:00N 32°43' W 117°48'4 8.0
2019-Jun-07 03:30N 32°39' W 117°46'4 8.4
2019-Jun-07 03:00N 32°35' W 117°44'4 8.6
2019-Jun-07 02:30N 32°31' W 117°43'4 8.6
2019-Jun-07 02:00N 32°27' W 117°41'4 8.8
2019-Jun-07 01:30N 32°23' W 117°39'4 8.6
2019-Jun-07 01:01N 32°19' W 117°38'4 8.4
2019-Jun-07 00:30N 32°16' W 117°34'4 8.5
2019-Jun-07 00:00N 32°13' W 117°31'4 8.5
2019-Jun-06 23:30N 32°10' W 117°28'11 8.4
2019-Jun-06 22:13N 32°01' W 117°19'11 6.8
2019-Jun-06 20:38N 31°51' W 117°20'3 5.4
2019-Jun-06 20:00N 31°48' W 117°18'1225.4 190 / 41018.310.8 17.015.417.0
2019-Jun-06 19:32N 31°49' W 117°32'1 7.7
2019-Jun-06 19:26N 31°49' W 117°33'3 8.0
2019-Jun-06 19:00N 31°49' W 117°37'4 8.2
2019-Jun-06 18:30N 31°49' W 117°41'4 8.1
2019-Jun-06 18:00N 31°48' W 117°46'4 8.2
2019-Jun-06 17:30N 31°48' W 117°51'4 8.2
2019-Jun-06 16:57N 31°47' W 117°56'4 8.4
2019-Jun-06 16:30N 31°47' W 118°01'4 8.3
2019-Jun-06 15:59N 31°46' W 118°06'3 6.2
2019-Jun-06 15:30N 31°44' W 118°08'4 7.6
2019-Jun-06 15:00N 31°41' W 118°05'4 7.8
2019-Jun-06 14:30N 31°38' W 118°03'8 7.7
2019-Jun-06 13:31N 31°31' W 117°58'0 7.1
2019-Jun-06 13:30N 31°31' W 117°57'12 5.5
2019-Jun-06 11:19N 31°26' W 117°45'5 8.4
2019-Jun-06 10:40N 31°31' W 117°48'1 8.7
2019-Jun-06 10:30N 31°32' W 117°49'4 9.0
2019-Jun-06 10:00N 31°36' W 117°52'6 8.6
2019-Jun-06 09:21N 31°40' W 117°56'3 7.6
2019-Jun-06 09:00N 31°43' W 117°56'7457.7
2019-Jun-06 09:00N 31°42' W 117°48'4 9.0 270 / 61016.210.8 15.013.317.0
2019-Jun-06 08:30N 31°45' W 117°52'6 8.1
2019-Jun-06 07:47N 31°45' W 117°45'  

Dump ship's entire track history